createdAt,value
2019-01-02T00:01:32.360Z,73.93
2019-01-02T00:04:03.100Z,74.09
2019-01-02T00:06:33.874Z,73.74
2019-01-02T00:09:05.966Z,74.10
2019-01-02T00:11:36.288Z,74.14
2019-01-02T00:14:06.646Z,73.92
2019-01-02T00:16:37.318Z,74.11
2019-01-02T00:19:08.557Z,74.28
2019-01-02T00:21:39.696Z,74.00
2019-01-02T00:24:10.339Z,74.39
2019-01-02T00:26:40.902Z,74.30
2019-01-02T00:29:11.270Z,74.10
2019-01-02T00:31:41.958Z,74.25
2019-01-02T00:34:12.534Z,73.50
2019-01-02T00:36:43.241Z,73.43
2019-01-02T00:39:13.792Z,72.96
2019-01-02T00:41:44.156Z,72.69
2019-01-02T00:44:15.157Z,72.74
2019-01-02T00:46:45.452Z,72.69
2019-01-02T00:49:16.490Z,73.52
2019-01-02T00:51:47.151Z,72.96
2019-01-02T00:54:18.159Z,73.10
2019-01-02T00:56:48.450Z,72.93
2019-01-02T00:59:19.854Z,73.00
2019-01-02T01:01:50.348Z,72.65
2019-01-02T01:04:21.905Z,72.83
2019-01-02T01:06:52.206Z,72.16
2019-01-02T01:09:23.102Z,71.82
2019-01-02T01:11:53.758Z,72.67
2019-01-02T01:14:24.772Z,72.40
2019-01-02T01:16:55.044Z,72.37
2019-01-02T01:19:26.469Z,71.58
2019-01-02T01:21:56.751Z,72.12
2019-01-02T01:24:27.482Z,72.47
2019-01-02T01:26:58.462Z,72.19
2019-01-02T01:29:28.964Z,71.93
2019-01-02T01:31:59.235Z,72.77
2019-01-02T01:34:29.981Z,72.60
2019-01-02T01:37:00.255Z,72.53
2019-01-02T01:39:31.607Z,72.42
2019-01-02T01:42:01.864Z,72.58
2019-01-02T01:44:32.342Z,71.94
2019-01-02T01:47:03.236Z,71.80
2019-01-02T01:49:34.025Z,71.45
2019-01-02T01:52:04.301Z,71.25
2019-01-02T01:54:35.392Z,70.53
2019-01-02T01:57:06.149Z,71.05
2019-01-02T01:59:36.976Z,70.59
2019-01-02T02:02:07.620Z,70.79
2019-01-02T02:04:38.510Z,70.51
2019-01-02T02:07:09.093Z,70.95
2019-01-02T02:09:39.861Z,70.89
2019-01-02T02:12:10.204Z,70.98
2019-01-02T02:14:41.034Z,71.40
2019-01-02T02:17:11.849Z,72.09
2019-01-02T02:19:42.144Z,72.18
2019-01-02T02:22:13.230Z,72.45
2019-01-02T02:24:43.765Z,72.11
2019-01-02T02:27:14.740Z,72.16
2019-01-02T02:29:45.205Z,72.35
2019-01-02T02:32:15.968Z,72.34
2019-01-02T02:34:46.273Z,72.80
2019-01-02T02:37:16.560Z,72.49
2019-01-02T02:39:47.107Z,73.19
2019-01-02T02:42:18.248Z,72.96
2019-01-02T02:44:49.226Z,72.83
2019-01-02T02:47:19.722Z,72.24
2019-01-02T02:49:50.302Z,72.92
2019-01-02T02:52:21.081Z,73.36
2019-01-02T02:54:51.410Z,73.61
2019-01-02T02:57:21.712Z,72.75
2019-01-02T02:59:52.415Z,73.31
2019-01-02T03:02:22.684Z,73.49
2019-01-02T03:04:53.001Z,72.64
2019-01-02T03:07:23.660Z,73.77
2019-01-02T03:09:54.271Z,73.38
2019-01-02T03:12:24.968Z,73.01
2019-01-02T03:14:55.276Z,73.05
2019-01-02T03:17:25.548Z,73.01
2019-01-02T03:19:56.554Z,72.92
2019-01-02T03:22:27.397Z,72.93
2019-01-02T03:24:58.167Z,73.07
2019-01-02T03:27:29.310Z,72.75
2019-01-02T03:30:00.010Z,72.90
2019-01-02T03:32:30.603Z,72.91
2019-01-02T03:35:01.677Z,73.31
2019-01-02T03:37:32.061Z,73.99
2019-01-02T03:40:02.370Z,74.88
2019-01-02T03:42:32.744Z,75.42
2019-01-02T03:45:03.394Z,76.97
2019-01-02T03:47:33.686Z,77.43
2019-01-02T03:50:04.234Z,77.87
2019-01-02T03:52:34.939Z,77.24
2019-01-02T03:55:06.750Z,76.51
2019-01-02T03:57:37.048Z,75.64
2019-01-02T04:00:09.848Z,77.21
2019-01-02T04:02:40.123Z,76.58
2019-01-02T04:05:11.715Z,75.81
2019-01-02T04:07:44.419Z,75.35
2019-01-02T04:10:15.033Z,75.81
2019-01-02T04:12:45.328Z,75.97
2019-01-02T04:15:15.845Z,77.01
2019-01-02T04:17:46.129Z,77.89
2019-01-02T04:20:16.813Z,78.24
2019-01-02T04:22:47.128Z,78.32
2019-01-02T04:25:17.401Z,77.42
2019-01-02T04:27:49.160Z,77.00
2019-01-02T04:30:19.622Z,76.16
2019-01-02T04:32:49.903Z,75.94
2019-01-02T04:35:20.627Z,75.23
2019-01-02T04:37:51.210Z,75.06
2019-01-02T04:40:21.572Z,74.23
2019-01-02T04:42:51.949Z,74.38
2019-01-02T04:45:22.630Z,74.94
2019-01-02T04:47:52.967Z,75.39
2019-01-02T04:50:23.418Z,76.28
2019-01-02T04:52:53.749Z,76.15
2019-01-02T04:55:24.483Z,76.50
2019-01-02T04:57:54.836Z,76.45
2019-01-02T05:00:25.173Z,75.95
2019-01-02T05:02:55.541Z,75.32
2019-01-02T05:05:26.078Z,76.36
2019-01-02T05:07:56.374Z,76.44
2019-01-02T05:10:26.836Z,75.51
2019-01-02T05:12:57.415Z,75.12
2019-01-02T05:15:27.775Z,74.84
2019-01-02T05:17:58.069Z,74.94
2019-01-02T05:20:28.558Z,74.58
2019-01-02T05:22:59.369Z,74.46
2019-01-02T05:25:30.069Z,75.92
2019-01-02T05:28:00.421Z,76.21
2019-01-02T05:30:30.747Z,75.49
2019-01-02T05:33:01.492Z,76.13
2019-01-02T05:35:31.757Z,76.33
2019-01-02T05:38:02.092Z,75.76
2019-01-02T05:40:32.748Z,75.89
2019-01-02T05:43:03.070Z,76.44
2019-01-02T05:45:33.337Z,76.21
2019-01-02T05:48:04.114Z,75.35
2019-01-02T05:50:34.609Z,75.33
2019-01-02T05:53:05.418Z,74.37
2019-01-02T05:55:35.796Z,72.58
2019-01-02T05:58:06.275Z,71.48
2019-01-02T06:00:39.923Z,72.31
2019-01-02T06:03:08.897Z,72.92
2019-01-02T06:05:39.234Z,73.28
2019-01-02T06:08:09.952Z,73.20
2019-01-02T06:10:40.316Z,73.54
2019-01-02T06:13:10.640Z,72.80
2019-01-02T06:15:41.159Z,71.94
2019-01-02T06:18:11.827Z,70.72
2019-01-02T06:20:42.151Z,70.93
2019-01-02T06:23:12.799Z,70.95
2019-01-02T06:25:43.134Z,71.54
2019-01-02T06:28:13.673Z,71.44
2019-01-02T06:30:44.203Z,71.76
2019-01-02T06:33:14.610Z,72.93
2019-01-02T06:35:45.232Z,74.27
2019-01-02T06:38:15.718Z,74.42
2019-01-02T06:40:46.055Z,74.10
2019-01-02T06:43:16.418Z,73.53
2019-01-02T06:45:47.690Z,73.77
2019-01-02T06:48:18.008Z,74.08
2019-01-02T06:50:49.763Z,73.02
2019-01-02T06:53:20.401Z,72.36
2019-01-02T06:55:50.798Z,71.61
2019-01-02T06:58:21.223Z,69.37
2019-01-02T07:00:52.851Z,68.33
2019-01-02T07:03:23.621Z,68.58
2019-01-02T07:05:54.286Z,68.51
2019-01-02T07:08:24.590Z,67.77
2019-01-02T07:10:55.397Z,68.42
2019-01-02T07:13:25.792Z,68.48
2019-01-02T07:15:56.132Z,67.59
2019-01-02T07:18:26.585Z,66.56
2019-01-02T07:20:57.270Z,67.10
2019-01-02T07:23:27.577Z,67.32
2019-01-02T07:25:57.945Z,66.96
2019-01-02T07:28:28.504Z,65.60
2019-01-02T07:30:59.296Z,64.82
2019-01-02T07:33:38.971Z,64.95
2019-01-02T07:36:35.204Z,64.40
2019-01-02T07:39:50.793Z,65.28
2019-01-02T07:43:10.846Z,64.32
2019-01-02T07:46:20.666Z,64.51
2019-01-02T07:49:27.121Z,65.53
2019-01-02T07:52:21.475Z,65.11
2019-01-02T07:55:41.632Z,62.81
2019-01-02T07:58:58.752Z,63.62
2019-01-02T08:01:57.505Z,63.17
2019-01-02T08:05:14.800Z,63.21
2019-01-02T08:08:44.229Z,63.52
2019-01-02T08:11:34.855Z,63.54
2019-01-02T08:14:46.302Z,63.62
2019-01-02T08:18:00.638Z,63.30
2019-01-02T08:21:20.481Z,61.99
2019-01-02T08:24:14.001Z,61.12
2019-01-02T08:27:07.951Z,59.61
2019-01-02T08:30:13.999Z,58.87
2019-01-02T08:33:32.598Z,58.36
2019-01-02T08:36:27.424Z,58.12
2019-01-02T08:39:33.331Z,58.52
2019-01-02T08:42:38.775Z,57.79
2019-01-02T08:45:46.019Z,56.95
2019-01-02T08:48:52.122Z,56.28
2019-01-02T08:51:54.073Z,55.04
2019-01-02T08:55:02.435Z,54.87
2019-01-02T08:58:12.197Z,54.98
2019-01-02T09:01:19.461Z,54.56
2019-01-02T09:04:20.564Z,54.31
2019-01-02T09:07:31.994Z,54.76
2019-01-02T09:10:39.563Z,55.90
2019-01-02T09:13:42.311Z,54.90
2019-01-02T09:16:48.325Z,53.98
2019-01-02T09:20:08.653Z,54.72
2019-01-02T09:23:18.593Z,52.63
2019-01-02T09:26:19.203Z,52.11
2019-01-02T09:29:30.621Z,52.45
2019-01-02T09:32:39.188Z,51.44
2019-01-02T09:35:53.688Z,50.45
2019-01-02T09:38:47.504Z,49.76
2019-01-02T09:41:45.343Z,50.07
2019-01-02T09:44:54.011Z,50.04
2019-01-02T09:48:00.995Z,49.63
2019-01-02T09:51:21.353Z,49.37
2019-01-02T09:54:30.404Z,49.11
2019-01-02T09:57:40.727Z,49.13
2019-01-02T10:00:43.387Z,48.92
2019-01-02T10:03:40.062Z,48.88
2019-01-02T10:06:30.250Z,49.09
2019-01-02T10:09:32.787Z,49.83
2019-01-02T10:12:43.965Z,50.12
2019-01-02T10:15:38.233Z,49.16
2019-01-02T10:19:04.879Z,48.75
2019-01-02T10:22:03.905Z,49.64
2019-01-02T10:25:13.645Z,49.48
2019-01-02T10:28:04.570Z,49.56
2019-01-02T10:31:12.801Z,49.17
2019-01-02T10:34:26.059Z,49.19
2019-01-02T10:37:24.881Z,48.40
2019-01-02T10:40:26.624Z,49.30
2019-01-02T10:43:26.357Z,48.81
2019-01-02T10:46:42.777Z,48.48
2019-01-02T10:50:02.884Z,48.80
2019-01-02T10:53:14.888Z,49.13
2019-01-02T10:56:35.252Z,48.67
2019-01-02T11:00:00.632Z,49.33
2019-01-02T11:03:06.179Z,49.79
2019-01-02T11:06:09.003Z,50.03
2019-01-02T11:09:15.875Z,50.60
2019-01-02T11:12:41.697Z,51.22
2019-01-02T11:15:37.057Z,52.64
2019-01-02T11:18:53.412Z,53.41
2019-01-02T11:21:52.757Z,52.84
2019-01-02T11:25:02.805Z,53.26
2019-01-02T11:27:55.753Z,51.66
2019-01-02T11:31:13.587Z,52.59
2019-01-02T11:34:21.925Z,51.58
2019-01-02T11:37:41.293Z,52.06
2019-01-02T11:40:48.623Z,51.01
2019-01-02T11:44:02.633Z,50.72
2019-01-02T11:46:33.328Z,50.96
2019-01-02T11:49:03.749Z,52.32
2019-01-02T11:51:34.027Z,52.33
2019-01-02T11:54:04.877Z,51.34
2019-01-02T11:56:35.538Z,52.03
2019-01-02T11:59:05.926Z,51.80
2019-01-02T12:01:36.924Z,51.49
2019-01-02T12:04:07.437Z,52.49
2019-01-02T12:06:38.083Z,51.79
2019-01-02T12:09:09.640Z,51.48
2019-01-02T12:11:39.908Z,51.21
2019-01-02T12:14:10.817Z,51.47
2019-01-02T12:16:41.426Z,51.73
2019-01-02T12:19:11.997Z,50.87
2019-01-02T12:21:42.693Z,49.93
2019-01-02T12:24:13.540Z,50.07
2019-01-02T12:26:43.921Z,50.73
2019-01-02T12:29:14.692Z,49.63
2019-01-02T12:31:45.441Z,50.02
2019-01-02T12:34:15.748Z,49.54
2019-01-02T12:36:46.363Z,49.19
2019-01-02T12:39:16.667Z,49.26
2019-01-02T12:41:47.250Z,50.10
2019-01-02T12:44:18.112Z,50.13
2019-01-02T12:46:48.483Z,50.56
2019-01-02T12:49:19.233Z,50.75
2019-01-02T12:51:49.922Z,51.59
2019-01-02T12:54:20.314Z,51.74
2019-01-02T12:56:50.596Z,51.94
2019-01-02T12:59:27.023Z,51.82
2019-01-02T13:02:24.818Z,52.31
2019-01-02T13:05:28.863Z,52.55
2019-01-02T13:08:31.555Z,53.18
2019-01-02T13:11:22.696Z,52.63
2019-01-02T13:14:19.505Z,52.09
2019-01-02T13:17:39.268Z,51.95
2019-01-02T13:20:49.153Z,53.31
2019-01-02T13:23:47.400Z,52.55
2019-01-02T13:26:57.113Z,51.95
2019-01-02T13:29:54.636Z,52.41
2019-01-02T13:33:14.649Z,52.34
2019-01-02T13:36:23.504Z,53.09
2019-01-02T13:39:50.004Z,53.08
2019-01-02T13:42:51.836Z,54.52
2019-01-02T13:45:40.920Z,55.66
2019-01-02T13:48:50.638Z,56.84
2019-01-02T13:51:37.766Z,57.60
2019-01-02T13:54:08.489Z,57.68
2019-01-02T13:56:39.597Z,57.98
2019-01-02T13:59:10.302Z,58.86
2019-01-02T14:01:40.947Z,58.68
2019-01-02T14:04:12.185Z,59.26
2019-01-02T14:06:42.479Z,58.84
2019-01-02T14:09:13.539Z,58.56
2019-01-02T14:11:43.830Z,58.92
2019-01-02T14:14:14.387Z,59.05
2019-01-02T14:16:44.961Z,59.06
2019-01-02T14:19:15.457Z,59.28
2019-01-02T14:21:46.111Z,59.80
2019-01-02T14:24:16.722Z,59.53
2019-01-02T14:26:47.013Z,60.54
2019-01-02T14:29:17.794Z,60.30
2019-01-02T14:31:48.165Z,61.56
2019-01-02T14:34:18.494Z,62.07
2019-01-02T14:36:48.844Z,63.02
2019-01-02T14:39:19.403Z,63.57
2019-01-02T14:41:49.693Z,65.36
2019-01-02T14:44:20.702Z,65.32
2019-01-02T14:46:51.308Z,65.00
2019-01-02T14:49:21.674Z,65.40
2019-01-02T14:51:52.549Z,65.57
2019-01-02T14:54:22.838Z,66.09
2019-01-02T14:56:53.679Z,65.73
2019-01-02T14:59:24.690Z,65.82
2019-01-02T15:01:55.044Z,67.02
2019-01-02T15:04:25.928Z,68.07
2019-01-02T15:06:56.275Z,67.88
2019-01-02T15:09:27.630Z,68.67
2019-01-02T15:11:58.158Z,68.36
2019-01-02T15:14:29.143Z,69.64
2019-01-02T15:16:59.415Z,69.69
2019-01-02T15:19:29.841Z,69.32
2019-01-02T15:22:04.844Z,69.40
2019-01-02T15:24:32.750Z,69.68
2019-01-02T15:27:03.194Z,69.95
2019-01-02T15:29:33.944Z,70.29
2019-01-02T15:32:04.299Z,70.39
2019-01-02T15:34:34.571Z,71.69
2019-01-02T15:37:05.232Z,71.67
2019-01-02T15:39:35.683Z,71.46
2019-01-02T15:42:06.045Z,72.00
2019-01-02T15:44:36.933Z,71.81
2019-01-02T15:47:08.634Z,71.75
2019-01-02T15:49:39.230Z,71.37
2019-01-02T15:52:09.909Z,71.87
2019-01-02T15:54:40.551Z,70.70
2019-01-02T15:57:11.146Z,71.06
2019-01-02T15:59:41.583Z,70.78
2019-01-02T16:02:12.130Z,70.70
2019-01-02T16:04:42.774Z,70.97
2019-01-02T16:07:13.202Z,70.36
2019-01-02T16:09:43.496Z,70.19
2019-01-02T16:12:14.641Z,70.08
2019-01-02T16:14:45.332Z,69.85
2019-01-02T16:17:15.919Z,69.57
2019-01-02T16:19:46.390Z,69.35
2019-01-02T16:22:17.293Z,69.08
2019-01-02T16:24:47.582Z,68.02
2019-01-02T16:27:18.219Z,67.91
2019-01-02T16:29:48.768Z,67.28
2019-01-02T16:32:19.645Z,66.74
2019-01-02T16:34:50.026Z,66.29
2019-01-02T16:37:20.304Z,65.12
2019-01-02T16:39:50.957Z,64.88
2019-01-02T16:42:21.638Z,65.06
2019-01-02T16:44:51.997Z,63.11
2019-01-02T16:47:22.287Z,62.38
2019-01-02T16:49:53.265Z,61.72
2019-01-02T16:52:23.581Z,61.46
2019-01-02T16:54:54.361Z,61.32
2019-01-02T16:57:25.119Z,60.89
2019-01-02T16:59:55.840Z,61.01
2019-01-02T17:02:26.496Z,60.86
2019-01-02T17:04:57.072Z,60.57
2019-01-02T17:07:27.337Z,60.20
2019-01-02T17:09:58.144Z,60.08
2019-01-02T17:12:28.445Z,60.53
2019-01-02T17:14:59.013Z,60.06
2019-01-02T17:17:29.783Z,60.25
2019-01-02T17:20:00.637Z,60.12
2019-01-02T17:22:31.040Z,60.47
2019-01-02T17:25:01.735Z,60.34
2019-01-02T17:27:32.388Z,60.88
2019-01-02T17:30:03.021Z,61.21
2019-01-02T17:32:33.546Z,60.81
2019-01-02T17:35:05.327Z,61.02
2019-01-02T17:37:35.595Z,61.43
2019-01-02T17:40:07.641Z,61.29
2019-01-02T17:42:38.361Z,61.00
2019-01-02T17:45:10.226Z,60.61
2019-01-02T17:47:40.527Z,60.76
2019-01-02T17:50:11.817Z,60.43
2019-01-02T17:52:42.313Z,60.69
2019-01-02T17:55:12.586Z,60.83
2019-01-02T17:57:43.279Z,61.67
2019-01-02T18:00:14.193Z,61.61
2019-01-02T18:02:44.481Z,61.54
2019-01-02T18:05:15.060Z,61.29
2019-01-02T18:07:45.469Z,61.96
2019-01-02T18:10:16.018Z,62.19
2019-01-02T18:12:46.325Z,61.55
2019-01-02T18:15:16.841Z,62.01
2019-01-02T18:17:47.506Z,61.68
2019-01-02T18:20:17.984Z,62.39
2019-01-02T18:22:48.743Z,62.11
2019-01-02T18:25:19.507Z,62.14
2019-01-02T18:27:50.131Z,61.91
2019-01-02T18:30:20.639Z,62.11
2019-01-02T18:32:51.292Z,62.21
2019-01-02T18:35:21.658Z,62.35
2019-01-02T18:37:52.032Z,62.76
2019-01-02T18:40:22.586Z,62.43
2019-01-02T18:42:52.886Z,62.73
2019-01-02T18:45:23.648Z,62.95
2019-01-02T18:47:54.098Z,62.40
2019-01-02T18:50:24.384Z,63.57
2019-01-02T18:52:54.914Z,64.01
2019-01-02T18:55:25.567Z,63.67
2019-01-02T18:57:55.854Z,63.75
2019-01-02T19:00:26.582Z,64.56
2019-01-02T19:02:57.265Z,64.04
2019-01-02T19:05:27.534Z,63.73
2019-01-02T19:07:58.185Z,63.88
2019-01-02T19:10:28.709Z,64.73
2019-01-02T19:12:59.378Z,64.71
2019-01-02T19:15:30.234Z,64.52
2019-01-02T19:18:00.517Z,65.29
2019-01-02T19:20:30.963Z,65.14
2019-01-02T19:23:01.830Z,64.93
2019-01-02T19:25:32.129Z,64.62
2019-01-02T19:28:02.446Z,65.11
2019-01-02T19:30:33.366Z,65.07
2019-01-02T19:33:03.649Z,66.83
2019-01-02T19:35:33.924Z,65.55
2019-01-02T19:38:04.740Z,66.50
2019-01-02T19:40:35.254Z,66.65
2019-01-02T19:43:06.148Z,66.22
2019-01-02T19:45:36.435Z,66.71
2019-01-02T19:48:06.751Z,66.94
2019-01-02T19:50:37.415Z,66.72
2019-01-02T19:53:07.856Z,67.09
2019-01-02T19:55:38.169Z,67.08
2019-01-02T19:58:09.002Z,66.86
2019-01-02T20:00:39.487Z,67.07
2019-01-02T20:03:10.001Z,67.11
2019-01-02T20:05:40.391Z,67.41
2019-01-02T20:08:11.136Z,66.88
2019-01-02T20:10:41.390Z,67.17
2019-01-02T20:13:12.393Z,67.09
2019-01-02T20:15:42.699Z,67.04
2019-01-02T20:18:13.640Z,67.59
2019-01-02T20:20:44.173Z,67.50
2019-01-02T20:23:14.488Z,67.30
2019-01-02T20:25:45.140Z,67.61
2019-01-02T20:28:16.987Z,67.39
2019-01-02T20:30:47.322Z,67.11
2019-01-02T20:33:17.726Z,68.34
2019-01-02T20:35:48.093Z,67.81
2019-01-02T20:38:18.575Z,68.14
2019-01-02T20:40:48.985Z,67.63
2019-01-02T20:43:19.747Z,67.26
2019-01-02T20:45:50.044Z,67.32
2019-01-02T20:48:20.906Z,67.82
2019-01-02T20:50:51.178Z,68.29
2019-01-02T20:53:22.218Z,68.24
2019-01-02T20:55:52.734Z,68.68
2019-01-02T20:58:23.210Z,68.39
2019-01-02T21:00:53.689Z,68.03
2019-01-02T21:03:24.511Z,68.49
2019-01-02T21:05:54.789Z,68.42
2019-01-02T21:08:25.466Z,68.71
2019-01-02T21:10:56.130Z,68.36
2019-01-02T21:13:26.714Z,68.93
2019-01-02T21:15:57.060Z,69.03
2019-01-02T21:18:27.890Z,69.14
2019-01-02T21:20:58.250Z,68.88
2019-01-02T21:23:28.919Z,68.89
2019-01-02T21:25:59.770Z,68.13
2019-01-02T21:28:30.197Z,68.16
2019-01-02T21:31:00.874Z,68.29
2019-01-02T21:33:31.571Z,68.06
2019-01-02T21:36:01.837Z,68.31
2019-01-02T21:38:32.744Z,68.45
2019-01-02T21:41:03.254Z,69.04
2019-01-02T21:43:33.890Z,68.94
2019-01-02T21:46:04.675Z,68.89
2019-01-02T21:48:41.153Z,69.43
2019-01-02T21:51:07.643Z,69.09
2019-01-02T21:53:38.798Z,68.08
2019-01-02T21:56:09.530Z,68.05
2019-01-02T21:58:40.045Z,68.20
2019-01-02T22:01:10.402Z,67.79
2019-01-02T22:03:42.442Z,67.37
2019-01-02T22:06:12.772Z,68.09
2019-01-02T22:08:43.110Z,68.60
2019-01-02T22:11:13.774Z,68.07
2019-01-02T22:13:44.536Z,68.59
2019-01-02T22:16:14.889Z,68.22
2019-01-02T22:18:45.710Z,68.39
2019-01-02T22:21:16.518Z,68.91
2019-01-02T22:23:47.310Z,68.97
2019-01-02T22:26:17.686Z,69.87
2019-01-02T22:28:48.232Z,69.62
2019-01-02T22:31:18.813Z,69.17
2019-01-02T22:33:49.284Z,69.20
2019-01-02T22:36:19.568Z,69.01
2019-01-02T22:38:50.370Z,68.82
2019-01-02T22:41:20.875Z,68.98
2019-01-02T22:43:51.438Z,68.76
2019-01-02T22:46:22.198Z,68.34
2019-01-02T22:48:53.100Z,68.19
2019-01-02T22:51:23.375Z,67.69
2019-01-02T22:53:53.917Z,67.57
2019-01-02T22:56:25.149Z,67.48
2019-01-02T22:58:55.546Z,67.36
2019-01-02T23:01:30.215Z,67.84
2019-01-02T23:04:28.248Z,67.93
2019-01-02T23:07:24.248Z,68.14
2019-01-02T23:10:14.835Z,67.69
2019-01-02T23:13:13.854Z,67.27
2019-01-02T23:16:13.537Z,68.02
2019-01-02T23:19:01.970Z,68.38
2019-01-02T23:21:56.956Z,68.75
2019-01-02T23:24:52.937Z,68.95
2019-01-02T23:27:41.401Z,68.41
2019-01-02T23:30:40.384Z,67.96
2019-01-02T23:33:35.700Z,68.22
2019-01-02T23:36:27.745Z,67.69
2019-01-02T23:39:26.638Z,68.61
2019-01-02T23:42:15.796Z,68.01
2019-01-02T23:45:20.077Z,68.50
2019-01-02T23:48:16.868Z,68.33
2019-01-02T23:51:05.402Z,68.15
2019-01-02T23:53:57.970Z,68.14
2019-01-02T23:56:47.331Z,68.20
2019-01-02T23:59:43.072Z,67.95
